Time;durP1;ratioP1;P1;durP2;ratioP2;P2;SDS_P1;SDS_P2;PMS_P1;PMS_P2;Temp;Humidity;BMP_temperature;BMP_pressure;BME280_temperature;BME280_humidity;BME280_pressure;Samples;Min_cycle;Max_cycle;Signal;HPM_P1;HPM_P2
2022/09/10 00:00:55;;;;;;;10.43;7.95;;;15.50;99.90;;;;;;5072086;28;20219;-77
2022/09/10 00:03:21;;;;;;;10.63;8.18;;;15.70;99.90;;;;;;5073117;28;20106;-77
2022/09/10 00:05:47;;;;;;;9.38;7.65;;;15.40;99.90;;;;;;5073964;28;20408;-77
2022/09/10 00:08:14;;;;;;;11.35;8.73;;;15.50;99.90;;;;;;5076784;28;20057;-76
2022/09/10 00:10:43;;;;;;;11.13;8.45;;;15.50;99.90;;;;;;5075734;28;20051;-77
2022/09/10 00:13:10;;;;;;;11.95;9.20;;;15.50;99.90;;;;;;5075496;28;20087;-76
2022/09/10 00:15:48;;;;;;;12.13;8.57;;;15.30;99.90;;;;;;5076650;28;20094;-76
2022/09/10 00:18:15;;;;;;;14.15;9.18;;;15.50;99.90;;;;;;5076809;28;20078;-77
2022/09/10 00:20:46;;;;;;;8.68;7.78;;;15.40;99.90;;;;;;5059295;28;20049;-76
2022/09/10 00:23:13;;;;;;;12.25;9.52;;;15.50;99.90;;;;;;5075554;28;20140;-76
2022/09/10 00:25:39;;;;;;;11.68;8.63;;;15.50;99.90;;;;;;5075472;28;20049;-75
2022/09/10 00:28:07;;;;;;;10.88;9.25;;;15.20;99.90;;;;;;5076308;28;20048;-77
2022/09/10 00:30:32;;;;;;;12.40;9.63;;;15.40;99.90;;;;;;5075594;28;20056;-76
2022/09/10 00:32:59;;;;;;;13.15;9.77;;;15.50;99.90;;;;;;5076302;28;20051;-77
2022/09/10 00:35:24;;;;;;;12.38;9.35;;;15.40;99.90;;;;;;5076331;28;20044;-76
2022/09/10 00:37:50;;;;;;;13.15;10.10;;;15.40;99.90;;;;;;5076335;28;20369;-76
2022/09/10 00:40:16;;;;;;;14.70;9.75;;;15.30;99.90;;;;;;5076441;28;20056;-77
2022/09/10 00:42:42;;;;;;;13.85;10.32;;;15.30;99.90;;;;;;5074660;28;20049;-77
2022/09/10 00:45:19;;;;;;;12.82;9.98;;;15.50;99.90;;;;;;5076432;28;20101;-77
2022/09/10 00:47:46;;;;;;;13.52;10.57;;;15.40;99.90;;;;;;5076281;28;20041;-77
2022/09/10 00:50:35;;;;;;;13.85;9.85;;;15.40;99.90;;;;;;5076041;28;20609;-77
2022/09/10 00:53:05;;;;;;;12.93;10.55;;;15.40;99.90;;;;;;5050311;28;20066;-76
2022/09/10 00:55:34;;;;;;;14.48;11.38;;;15.30;99.90;;;;;;5075644;28;20492;-76
2022/09/10 00:58:04;;;;;;;15.07;11.57;;;15.20;99.90;;;;;;5058265;28;20104;-76
2022/09/10 01:00:30;;;;;;;16.00;11.00;;;15.30;99.90;;;;;;5074656;28;20045;-76
2022/09/10 01:02:58;;;;;;;14.30;10.40;;;15.30;99.90;;;;;;5058246;28;20041;-76
2022/09/10 01:05:25;;;;;;;14.02;11.70;;;15.30;99.90;;;;;;5075415;28;20044;-75
2022/09/10 01:07:51;;;;;;;16.83;12.32;;;15.40;99.90;;;;;;5075423;28;20503;-77
2022/09/10 01:10:25;;;;;;;12.80;11.15;;;15.30;99.90;;;;;;5075775;28;20052;-77
2022/09/10 01:13:14;;;;;;;15.25;11.50;;;15.40;99.90;;;;;;5074168;28;20044;-77
2022/09/10 01:16:09;;;;;;;15.30;11.75;;;15.30;99.90;;;;;;5075148;28;20468;-77
2022/09/10 01:18:59;;;;;;;16.63;11.27;;;15.30;99.90;;;;;;5056921;28;20096;-77
2022/09/10 01:21:45;;;;;;;16.17;11.77;;;15.40;99.90;;;;;;5075499;28;20098;-77
2022/09/10 01:24:39;;;;;;;16.63;12.15;;;15.70;99.90;;;;;;5075461;28;20123;-77
2022/09/10 01:27:23;;;;;;;14.13;11.52;;;15.30;99.90;;;;;;5074181;28;20626;-77
2022/09/10 01:29:48;;;;;;;17.85;12.25;;;15.40;99.90;;;;;;5075345;28;20044;-77
2022/09/10 01:32:45;;;;;;;16.83;12.60;;;15.30;99.90;;;;;;5075449;28;20105;-77
2022/09/10 01:35:23;;;;;;;16.98;12.70;;;15.30;99.90;;;;;;5074274;28;20060;-76
2022/09/10 01:37:55;;;;;;;16.65;12.23;;;15.40;99.90;;;;;;5075183;28;20086;-76
2022/09/10 01:40:28;;;;;;;18.55;13.27;;;15.30;99.90;;;;;;5075054;28;20040;-77
2022/09/10 01:43:06;;;;;;;19.33;13.48;;;15.30;99.90;;;;;;5074345;28;20507;-77
2022/09/10 01:45:49;;;;;;;17.95;13.23;;;15.30;99.90;;;;;;5075853;28;20392;-77
2022/09/10 01:48:38;;;;;;;16.20;12.20;;;15.40;99.90;;;;;;5073706;28;20418;-77
2022/09/10 01:51:35;;;;;;;18.58;13.57;;;15.20;99.90;;;;;;5074879;28;20048;-77
2022/09/10 01:54:44;;;;;;;19.13;14.55;;;15.30;99.90;;;;;;5074844;28;20484;-77
2022/09/10 01:57:32;;;;;;;18.30;13.63;;;15.40;99.90;;;;;;5065936;28;20118;-77
2022/09/10 02:00:17;;;;;;;18.88;13.55;;;15.30;99.90;;;;;;5074669;28;20164;-77
2022/09/10 02:02:43;;;;;;;17.88;12.68;;;15.40;99.90;;;;;;5075089;28;20088;-77
2022/09/10 02:05:10;;;;;;;19.70;14.80;;;15.50;99.90;;;;;;5073282;28;20533;-77
2022/09/10 02:07:36;;;;;;;18.90;13.65;;;15.20;99.90;;;;;;5074667;28;20098;-76
2022/09/10 02:10:05;;;;;;;20.88;14.55;;;15.30;99.90;;;;;;5057027;28;20048;-76
2022/09/10 02:12:32;;;;;;;18.25;13.82;;;15.60;99.90;;;;;;5073526;28;20492;-77
2022/09/10 02:14:58;;;;;;;17.45;13.52;;;15.40;99.90;;;;;;5073429;28;20450;-77
2022/09/10 02:17:30;;;;;;;20.00;14.27;;;15.30;99.90;;;;;;5074425;28;20101;-77
2022/09/10 02:19:57;;;;;;;18.90;14.30;;;15.30;99.90;;;;;;5073483;28;20046;-77
2022/09/10 02:22:23;;;;;;;18.42;13.05;;;15.40;99.90;;;;;;5074322;28;20473;-77
2022/09/10 02:24:49;;;;;;;20.23;15.02;;;15.20;99.90;;;;;;5073999;28;20480;-77
2022/09/10 02:27:16;;;;;;;17.95;13.30;;;15.60;99.90;;;;;;5072809;28;20535;-77
2022/09/10 02:29:42;;;;;;;21.40;15.00;;;15.50;99.90;;;;;;5074125;28;20052;-76
2022/09/10 02:32:08;;;;;;;20.70;14.18;;;15.50;99.90;;;;;;5074100;28;20067;-77
2022/09/10 02:34:35;;;;;;;18.77;14.50;;;15.50;99.90;;;;;;5074059;28;20045;-76
2022/09/10 02:37:02;;;;;;;21.95;15.73;;;15.60;99.90;;;;;;5073176;28;20049;-77
2022/09/10 02:39:31;;;;;;;20.23;14.70;;;15.40;99.90;;;;;;5056449;28;20059;-78
2022/09/10 02:42:00;;;;;;;20.85;15.25;;;15.40;99.90;;;;;;5073408;28;20044;-77
2022/09/10 02:44:26;;;;;;;20.13;15.27;;;15.70;99.90;;;;;;5073856;28;20058;-77
2022/09/10 02:46:52;;;;;;;21.75;16.00;;;15.50;99.90;;;;;;5073523;28;20400;-78
2022/09/10 02:49:19;;;;;;;22.23;15.85;;;15.50;99.90;;;;;;5039702;28;20127;-78
2022/09/10 02:51:46;;;;;;;23.25;15.35;;;15.40;99.90;;;;;;5072747;28;20127;-77
2022/09/10 02:54:11;;;;;;;21.63;15.13;;;15.50;99.90;;;;;;5073835;28;20052;-77
2022/09/10 02:56:37;;;;;;;22.25;15.15;;;15.30;99.90;;;;;;5073685;28;20090;-77
2022/09/10 02:59:03;;;;;;;20.85;15.00;;;15.60;99.90;;;;;;5073913;28;20048;-77
2022/09/10 03:01:28;;;;;;;23.52;15.77;;;15.60;99.90;;;;;;5073090;28;20476;-78
2022/09/10 03:03:57;;;;;;;22.40;15.18;;;15.50;99.90;;;;;;5073866;28;20056;-77
2022/09/10 03:06:24;;;;;;;20.80;16.33;;;15.80;99.90;;;;;;5073773;28;20117;-77
2022/09/10 03:08:50;;;;;;;22.33;16.45;;;15.60;99.90;;;;;;5073860;28;20143;-77
2022/09/10 03:11:17;;;;;;;21.27;16.13;;;15.50;99.90;;;;;;5073169;28;20044;-77
2022/09/10 03:13:44;;;;;;;20.85;15.35;;;15.50;99.90;;;;;;5073659;28;20052;-77
2022/09/10 03:16:12;;;;;;;21.15;16.35;;;15.50;99.90;;;;;;5072627;28;20044;-77
2022/09/10 03:18:39;;;;;;;22.42;15.00;;;15.60;99.90;;;;;;5073565;28;20082;-77
2022/09/10 03:21:17;;;;;;;21.60;16.30;;;15.70;99.90;;;;;;5073560;28;20129;-78
2022/09/10 03:23:45;;;;;;;22.67;16.75;;;15.30;99.90;;;;;;5072234;28;20392;-77
2022/09/10 03:26:13;;;;;;;23.73;16.88;;;15.50;99.90;;;;;;5072184;28;20083;-77
2022/09/10 03:28:40;;;;;;;23.92;17.38;;;15.40;99.90;;;;;;5073691;28;20049;-77
2022/09/10 03:31:06;;;;;;;20.60;15.85;;;15.60;99.90;;;;;;5073377;28;20131;-77
2022/09/10 03:33:33;;;;;;;22.38;16.67;;;15.50;99.90;;;;;;5072364;28;20060;-77
2022/09/10 03:36:01;;;;;;;23.92;16.52;;;15.70;99.90;;;;;;5073337;28;20049;-77
2022/09/10 03:38:27;;;;;;;23.20;16.48;;;15.70;99.90;;;;;;5073669;28;20056;-77
2022/09/10 03:40:53;;;;;;;23.88;16.83;;;15.60;99.90;;;;;;5077421;28;20048;-76
2022/09/10 03:43:21;;;;;;;23.40;16.63;;;15.60;99.90;;;;;;5076839;28;20055;-77
2022/09/10 03:45:48;;;;;;;24.38;15.70;;;15.60;99.90;;;;;;5077319;28;20141;-77
2022/09/10 03:48:15;;;;;;;21.75;15.52;;;15.60;99.90;;;;;;5077193;28;20044;-77
2022/09/10 03:50:43;;;;;;;23.17;15.48;;;15.70;99.90;;;;;;5077236;28;20079;-77
2022/09/10 03:53:12;;;;;;;21.60;14.57;;;15.40;99.90;;;;;;5077143;28;20044;-76
2022/09/10 03:55:38;;;;;;;21.55;15.32;;;15.50;99.90;;;;;;5087061;28;20446;-77
2022/09/10 03:58:07;;;;;;;20.92;15.40;;;15.70;99.90;;;;;;5089590;28;20055;-77
2022/09/10 04:00:34;;;;;;;23.48;15.10;;;15.70;99.90;;;;;;5090799;28;20049;-77
2022/09/10 04:03:00;;;;;;;22.42;14.52;;;15.40;99.90;;;;;;5090455;28;20040;-77
2022/09/10 04:05:26;;;;;;;21.45;16.35;;;15.50;99.90;;;;;;5077591;28;20045;-76
2022/09/10 04:07:53;;;;;;;20.58;15.98;;;15.60;99.90;;;;;;5076725;28;20143;-78
2022/09/10 04:10:22;;;;;;;23.50;16.65;;;15.60;99.90;;;;;;5075934;28;20045;-78
2022/09/10 04:12:48;;;;;;;25.85;16.33;;;15.70;99.90;;;;;;5076164;28;20098;-77
2022/09/10 04:15:14;;;;;;;23.02;15.88;;;15.70;99.90;;;;;;5076406;28;20044;-77
2022/09/10 04:17:40;;;;;;;24.20;16.63;;;15.50;99.90;;;;;;5076654;28;20080;-77
2022/09/10 04:20:06;;;;;;;23.38;15.70;;;15.50;99.90;;;;;;5076785;28;20088;-76
2022/09/10 04:22:33;;;;;;;25.17;16.83;;;15.60;99.90;;;;;;5076576;28;20055;-77
2022/09/10 04:24:59;;;;;;;22.67;15.60;;;15.80;99.90;;;;;;5075911;28;20053;-77
2022/09/10 04:27:25;;;;;;;22.42;16.40;;;15.70;99.90;;;;;;5076445;28;20044;-77
2022/09/10 04:29:51;;;;;;;23.23;16.30;;;15.90;99.90;;;;;;5076439;28;20080;-77
2022/09/10 04:32:17;;;;;;;24.10;16.30;;;15.70;99.90;;;;;;5075215;28;20049;-77
2022/09/10 04:34:43;;;;;;;22.73;15.77;;;15.60;99.90;;;;;;5058861;28;20134;-77
2022/09/10 04:37:09;;;;;;;25.38;16.90;;;15.60;99.90;;;;;;5076289;28;20072;-76
2022/09/10 04:39:35;;;;;;;23.85;16.13;;;15.80;99.90;;;;;;5075410;28;20044;-77
2022/09/10 04:42:01;;;;;;;24.10;16.80;;;15.80;99.90;;;;;;5074713;28;20043;-77
2022/09/10 04:44:28;;;;;;;26.77;16.25;;;15.50;99.90;;;;;;5075004;28;20048;-77
2022/09/10 04:46:54;;;;;;;22.77;16.15;;;15.70;99.90;;;;;;5075021;28;20088;-77
2022/09/10 04:49:20;;;;;;;24.88;16.52;;;15.50;99.90;;;;;;5076122;28;20055;-77
2022/09/10 04:51:46;;;;;;;25.38;16.90;;;15.70;99.90;;;;;;5075235;28;20045;-78
2022/09/10 04:54:14;;;;;;;22.70;15.88;;;15.60;99.90;;;;;;5076016;28;20499;-77
2022/09/10 04:56:42;;;;;;;21.10;15.38;;;15.50;99.90;;;;;;5076153;28;20048;-77
2022/09/10 04:59:09;;;;;;;21.27;15.95;;;15.90;99.90;;;;;;5075871;28;20060;-77
2022/09/10 05:01:35;;;;;;;20.75;15.43;;;15.80;99.90;;;;;;5075908;28;20091;-76
2022/09/10 05:04:01;;;;;;;25.23;17.05;;;15.60;99.90;;;;;;5074876;28;20080;-77
2022/09/10 05:06:27;;;;;;;21.92;15.70;;;15.60;99.90;;;;;;5075328;28;20052;-77
2022/09/10 05:08:53;;;;;;;23.98;15.98;;;15.70;99.90;;;;;;5074586;28;20040;-77
2022/09/10 05:11:19;;;;;;;23.63;15.68;;;15.70;99.90;;;;;;5074027;28;20084;-77
2022/09/10 05:13:45;;;;;;;22.75;15.75;;;15.60;99.90;;;;;;5075666;28;20087;-78
2022/09/10 05:16:11;;;;;;;24.08;16.33;;;15.80;99.90;;;;;;5075517;28;20106;-76
2022/09/10 05:18:37;;;;;;;21.77;15.18;;;15.70;99.90;;;;;;5074306;28;20052;-76
2022/09/10 05:21:04;;;;;;;23.00;15.25;;;15.60;99.90;;;;;;5074699;28;20045;-77
2022/09/10 05:23:30;;;;;;;22.73;16.38;;;15.70;99.90;;;;;;5074523;28;20396;-76
2022/09/10 05:25:56;;;;;;;20.10;15.35;;;15.80;99.90;;;;;;5075426;28;20048;-78
2022/09/10 05:28:23;;;;;;;22.95;16.38;;;15.80;99.90;;;;;;5057414;28;20060;-76
2022/09/10 05:30:49;;;;;;;22.33;15.88;;;15.70;99.90;;;;;;5075379;28;20052;-77
2022/09/10 05:33:15;;;;;;;21.80;14.82;;;15.70;99.90;;;;;;5057765;28;20063;-77
2022/09/10 05:35:40;;;;;;;20.58;14.55;;;15.50;99.90;;;;;;5075200;28;20468;-77
2022/09/10 05:38:07;;;;;;;21.10;14.95;;;15.80;99.90;;;;;;5075230;28;20040;-77
2022/09/10 05:40:34;;;;;;;20.55;15.15;;;15.70;99.90;;;;;;5057698;28;20093;-77
2022/09/10 05:42:59;;;;;;;24.17;15.45;;;15.70;99.90;;;;;;5074669;28;20049;-77
2022/09/10 05:45:25;;;;;;;23.45;15.20;;;15.60;99.90;;;;;;5073843;28;20044;-77
2022/09/10 05:47:51;;;;;;;20.73;15.68;;;15.60;99.90;;;;;;5073835;28;20045;-77
2022/09/10 05:50:18;;;;;;;23.40;15.18;;;15.80;99.90;;;;;;5073752;28;20587;-77
2022/09/10 05:52:44;;;;;;;21.45;15.30;;;15.70;99.90;;;;;;5073613;28;20044;-77
2022/09/10 05:55:10;;;;;;;21.90;15.73;;;15.80;99.90;;;;;;5074800;28;20041;-78
2022/09/10 05:57:36;;;;;;;21.58;14.68;;;15.80;99.90;;;;;;5074812;28;20137;-77
2022/09/10 06:00:05;;;;;;;24.27;14.45;;;15.60;99.90;;;;;;5074004;28;20389;-77
2022/09/10 06:02:32;;;;;;;24.40;14.98;;;15.70;99.90;;;;;;5074670;28;20481;-77
2022/09/10 06:04:59;;;;;;;25.60;15.13;;;15.80;99.90;;;;;;5074629;28;20084;-78
2022/09/10 06:07:27;;;;;;;20.40;14.20;;;15.90;99.90;;;;;;5074721;28;20096;-77
2022/09/10 06:09:53;;;;;;;21.30;14.38;;;15.80;99.90;;;;;;5072985;28;20551;-77
2022/09/10 06:12:19;;;;;;;32.28;16.17;;;15.90;99.90;;;;;;5073954;28;20049;-77
2022/09/10 06:14:45;;;;;;;23.27;15.48;;;15.70;99.90;;;;;;5074456;28;20044;-77
2022/09/10 06:17:11;;;;;;;25.20;15.32;;;15.70;99.90;;;;;;5056921;28;20106;-77
2022/09/10 06:19:38;;;;;;;23.33;15.65;;;15.90;99.90;;;;;;5074334;28;20057;-77
2022/09/10 06:22:05;;;;;;;24.38;15.98;;;16.00;99.90;;;;;;5074345;28;20045;-77
2022/09/10 06:24:30;;;;;;;23.13;15.55;;;15.70;99.90;;;;;;5073695;28;20378;-78
2022/09/10 06:26:56;;;;;;;20.90;14.25;;;15.90;99.90;;;;;;5073157;28;20051;-78
2022/09/10 06:29:22;;;;;;;23.65;15.07;;;15.80;99.90;;;;;;5056441;28;20097;-77
2022/09/10 06:31:48;;;;;;;18.83;13.60;;;15.90;99.90;;;;;;5074144;28;20045;-78
2022/09/10 06:34:17;;;;;;;22.25;13.70;;;16.00;99.90;;;;;;5073263;28;20135;-77
2022/09/10 06:36:45;;;;;;;23.55;14.52;;;15.80;99.90;;;;;;5073264;28;20180;-78
2022/09/10 06:39:11;;;;;;;23.13;14.77;;;16.10;99.90;;;;;;5056549;28;20044;-78
2022/09/10 06:41:36;;;;;;;23.63;14.43;;;16.00;99.90;;;;;;5073415;28;20506;-78
2022/09/10 06:44:02;;;;;;;23.08;14.02;;;16.00;99.90;;;;;;5074034;28;20045;-77
2022/09/10 06:46:28;;;;;;;22.63;14.73;;;16.00;99.90;;;;;;5073988;28;20476;-76
2022/09/10 06:48:59;;;;;;;22.58;14.48;;;16.00;99.90;;;;;;5073653;28;20109;-77
2022/09/10 06:51:25;;;;;;;22.13;14.30;;;16.10;99.90;;;;;;5073930;28;20088;-78
2022/09/10 06:53:51;;;;;;;19.20;13.80;;;16.00;99.90;;;;;;5073838;28;20080;-78
2022/09/10 06:56:17;;;;;;;23.35;15.27;;;15.90;99.90;;;;;;5073749;28;20468;-79
2022/09/10 06:58:43;;;;;;;22.27;14.10;;;16.00;99.90;;;;;;5073706;28;20049;-78
2022/09/10 07:01:17;;;;;;;20.83;14.13;;;15.90;99.90;;;;;;5072645;28;20055;-78
2022/09/10 07:03:43;;;;;;;20.95;14.40;;;16.10;99.90;;;;;;5073700;28;20548;-78
2022/09/10 07:06:14;;;;;;;22.08;14.13;;;16.00;99.90;;;;;;5073495;28;20060;-78
2022/09/10 07:08:40;;;;;;;23.95;14.07;;;16.10;99.90;;;;;;5072997;28;20512;-78
2022/09/10 07:11:11;;;;;;;20.45;14.20;;;15.90;99.90;;;;;;5073688;28;20106;-77
2022/09/10 07:13:38;;;;;;;21.02;13.77;;;16.10;99.90;;;;;;5072357;28;20488;-77
2022/09/10 07:16:05;;;;;;;19.15;12.85;;;16.20;99.90;;;;;;5073491;28;20044;-77
2022/09/10 07:18:32;;;;;;;22.65;14.63;;;16.10;99.90;;;;;;5073513;28;20093;-77
2022/09/10 07:21:12;;;;;;;21.83;14.07;;;16.10;99.90;;;;;;5073506;28;20049;-77
2022/09/10 07:23:39;;;;;;;21.73;14.23;;;16.20;99.90;;;;;;5072502;28;20048;-77
2022/09/10 07:26:07;;;;;;;20.55;13.68;;;16.10;99.90;;;;;;5073402;28;20079;-77
2022/09/10 07:28:33;;;;;;;20.10;13.23;;;16.10;99.90;;;;;;5073708;28;20123;-78
2022/09/10 07:30:58;;;;;;;22.08;13.88;;;16.10;99.90;;;;;;5073683;28;20052;-78
2022/09/10 07:33:24;;;;;;;22.02;13.75;;;16.10;99.90;;;;;;5072984;28;20407;-79
2022/09/10 07:35:50;;;;;;;20.83;13.98;;;16.20;99.90;;;;;;5073274;28;20400;-79
2022/09/10 07:38:16;;;;;;;22.77;13.45;;;16.20;99.90;;;;;;5073686;28;20044;-79
2022/09/10 07:40:42;;;;;;;20.90;13.35;;;16.20;99.90;;;;;;5073408;28;20048;-79
2022/09/10 07:43:08;;;;;;;22.35;13.02;;;16.30;99.90;;;;;;5071867;28;20049;-79
2022/09/10 07:45:34;;;;;;;20.73;13.38;;;16.30;99.90;;;;;;5073577;28;20044;-79
2022/09/10 07:48:00;;;;;;;22.40;13.82;;;16.40;99.90;;;;;;5073423;28;20094;-79
2022/09/10 07:50:25;;;;;;;22.42;14.10;;;16.40;99.90;;;;;;5073429;28;20114;-79
2022/09/10 07:52:51;;;;;;;20.75;13.48;;;16.20;99.90;;;;;;5055738;28;20487;-77
2022/09/10 07:55:17;;;;;;;18.73;13.35;;;16.20;99.90;;;;;;5072034;28;20062;-76
2022/09/10 07:57:44;;;;;;;20.80;14.07;;;16.50;99.90;;;;;;5072961;28;20040;-76
2022/09/10 08:00:13;;;;;;;21.98;13.10;;;16.30;99.90;;;;;;5072340;28;20054;-77
2022/09/10 08:02:41;;;;;;;20.52;12.75;;;16.40;99.90;;;;;;5073005;28;20614;-77
2022/09/10 08:05:09;;;;;;;20.80;13.38;;;16.20;99.90;;;;;;5073471;28;20128;-76
2022/09/10 08:07:39;;;;;;;18.48;13.20;;;16.30;99.90;;;;;;5073311;28;20056;-76
2022/09/10 08:10:08;;;;;;;22.25;12.73;;;16.40;99.90;;;;;;5073783;28;20420;-76
2022/09/10 08:12:38;;;;;;;20.83;13.02;;;16.30;99.90;;;;;;5072780;28;20045;-76
2022/09/10 08:15:06;;;;;;;23.70;13.15;;;16.40;99.90;;;;;;5073185;28;20082;-76
2022/09/10 08:17:33;;;;;;;20.13;13.15;;;16.50;99.90;;;;;;5073263;28;20472;-76
2022/09/10 08:20:00;;;;;;;20.95;12.68;;;16.40;99.90;;;;;;5072329;28;20392;-77
2022/09/10 08:22:25;;;;;;;17.83;12.25;;;16.50;99.90;;;;;;5072402;28;20107;-77
2022/09/10 08:24:52;;;;;;;18.27;12.95;;;16.60;99.90;;;;;;5073819;28;20071;-76
2022/09/10 08:27:18;;;;;;;17.77;12.27;;;16.60;99.90;;;;;;5074423;28;20036;-76
2022/09/10 08:29:43;;;;;;;18.20;12.80;;;16.80;99.90;;;;;;5076266;28;20052;-74
2022/09/10 08:32:12;;;;;;;15.85;11.73;;;16.60;99.90;;;;;;5076192;28;20044;-76
2022/09/10 08:34:39;;;;;;;16.80;11.45;;;16.60;99.90;;;;;;5073425;28;20037;-76
2022/09/10 08:37:05;;;;;;;17.67;11.18;;;16.40;99.90;;;;;;5075155;28;20043;-76
2022/09/10 08:39:31;;;;;;;15.25;10.93;;;16.60;99.90;;;;;;5074878;28;20036;-76
2022/09/10 08:42:25;;;;;;;18.13;11.25;;;16.80;99.90;;;;;;5075545;28;20040;-76
2022/09/10 08:44:56;;;;;;;13.95;9.70;;;16.80;99.90;;;;;;5074657;28;20134;-76
2022/09/10 08:47:36;;;;;;;17.65;11.25;;;16.80;99.90;;;;;;5072657;28;20123;-77
2022/09/10 08:50:27;;;;;;;12.30;9.18;;;16.70;99.90;;;;;;5072875;28;20051;-78
2022/09/10 08:53:21;;;;;;;13.75;10.05;;;16.90;99.90;;;;;;5075198;28;20098;-77
2022/09/10 08:55:49;;;;;;;14.52;9.88;;;16.80;99.90;;;;;;5073088;28;20078;-76
2022/09/10 08:58:34;;;;;;;15.55;10.77;;;16.80;99.90;;;;;;5075674;28;20040;-77
2022/09/10 09:01:03;;;;;;;13.57;9.32;;;17.10;99.90;;;;;;5073354;28;20475;-77
2022/09/10 09:03:46;;;;;;;14.20;9.80;;;16.80;99.90;;;;;;5075613;28;20059;-77
2022/09/10 09:06:33;;;;;;;13.90;9.57;;;16.90;99.90;;;;;;5073375;28;20094;-77
2022/09/10 09:09:00;;;;;;;15.13;10.95;;;17.00;99.90;;;;;;5074689;28;20040;-77
2022/09/10 09:11:30;;;;;;;16.85;10.57;;;16.90;99.90;;;;;;5073818;28;20056;-78
2022/09/10 09:14:28;;;;;;;14.07;9.48;;;16.80;99.90;;;;;;5069002;28;20055;-77
2022/09/10 09:17:15;;;;;;;14.80;10.43;;;17.00;99.90;;;;;;5070602;28;20050;-77
2022/09/10 09:19:56;;;;;;;13.35;9.60;;;17.20;99.90;;;;;;5069910;28;20040;-77
2022/09/10 09:22:44;;;;;;;15.93;10.48;;;17.00;99.90;;;;;;5070625;28;20088;-78
2022/09/10 09:25:35;;;;;;;14.98;9.93;;;17.10;99.90;;;;;;5069262;28;20068;-80
2022/09/10 09:28:04;;;;;;;14.60;9.75;;;17.10;99.90;;;;;;5069416;28;20385;-77
2022/09/10 09:30:36;;;;;;;16.42;9.05;;;17.10;99.90;;;;;;5067290;28;20060;-77
2022/09/10 09:33:15;;;;;;;15.48;11.27;;;17.00;99.90;;;;;;5070690;28;20114;-78
2022/09/10 09:35:52;;;;;;;18.38;10.77;;;17.30;99.90;;;;;;5081139;28;20040;-77
2022/09/10 09:38:34;;;;;;;19.17;10.23;;;17.30;99.90;;;;;;5068660;28;20070;-79
2022/09/10 09:41:07;;;;;;;17.45;11.07;;;17.00;99.90;;;;;;5066390;28;20459;-77
2022/09/10 09:43:32;;;;;;;;;;;17.20;99.90;;;;;;5067621;28;20059;-77
2022/09/10 09:45:59;;;;;;;13.25;8.55;;;16.90;99.90;;;;;;5068531;28;19924;-78
2022/09/10 09:48:33;;;;;;;16.33;10.57;;;17.00;99.90;;;;;;5074022;28;20051;-78
2022/09/10 09:50:59;;;;;;;16.85;9.75;;;17.00;99.90;;;;;;5072529;28;20080;-78
2022/09/10 09:53:26;;;;;;;14.07;9.40;;;17.00;99.90;;;;;;5073676;28;20407;-78
2022/09/10 09:56:00;;;;;;;15.98;9.65;;;17.00;99.90;;;;;;5070053;28;20476;-78
2022/09/10 09:58:29;;;;;;;14.68;9.80;;;17.10;99.90;;;;;;5067460;28;20484;-78
2022/09/10 10:01:09;;;;;;;14.50;10.32;;;16.90;99.90;;;;;;5067176;28;20518;-76
2022/09/10 10:03:45;;;;;;;15.15;10.07;;;17.10;99.90;;;;;;5068979;28;20426;-77
2022/09/10 10:06:11;;;;;;;14.95;9.68;;;17.10;99.90;;;;;;5067407;28;20484;-76
2022/09/10 10:08:43;;;;;;;15.40;9.95;;;17.00;99.90;;;;;;5067770;28;20102;-80
2022/09/10 10:11:13;;;;;;;13.13;9.95;;;17.20;99.90;;;;;;5066707;28;20495;-83
2022/09/10 10:13:44;;;;;;;16.15;10.27;;;17.20;99.90;;;;;;5049662;28;20135;-76
2022/09/10 10:16:13;;;;;;;13.18;9.02;;;17.20;99.90;;;;;;5068121;28;20040;-77
2022/09/10 10:18:41;;;;;;;13.30;9.32;;;17.10;99.90;;;;;;5065381;28;20048;-81
2022/09/10 10:21:35;;;;;;;14.57;9.70;;;17.10;99.90;;;;;;5067697;28;20049;-77
2022/09/10 10:24:02;;;;;;;15.05;9.35;;;17.50;99.90;;;;;;5064706;28;20059;-78
2022/09/10 10:26:33;;;;;;;14.32;8.95;;;17.60;99.90;;;;;;5065788;28;20063;-76
2022/09/10 10:29:05;;;;;;;12.15;8.57;;;17.60;99.90;;;;;;5068819;28;20083;-76
2022/09/10 10:31:42;;;;;;;12.88;8.93;;;17.60;99.90;;;;;;5068710;28;20729;-76
2022/09/10 10:34:08;;;;;;;13.00;8.90;;;17.70;99.90;;;;;;5067727;28;20423;-76
2022/09/10 10:37:03;;;;;;;13.43;8.65;;;17.80;99.90;;;;;;5068968;28;20048;-79
2022/09/10 10:40:01;;;;;;;13.77;8.98;;;17.70;99.90;;;;;;5066079;28;20435;-76
2022/09/10 10:42:53;;;;;;;10.98;7.75;;;17.60;99.90;;;;;;5066129;28;20565;-78
2022/09/10 10:45:39;;;;;;;12.77;8.55;;;17.80;99.90;;;;;;5066506;28;20056;-78
2022/09/10 10:48:34;;;;;;;13.75;8.15;;;17.70;99.90;;;;;;5069599;28;20040;-76
2022/09/10 10:51:25;;;;;;;14.82;8.65;;;17.50;99.90;;;;;;5069061;28;20052;-78
2022/09/10 10:53:57;;;;;;;13.93;9.88;;;17.90;99.90;;;;;;5053724;28;20606;-76
2022/09/10 10:56:36;;;;;;;12.48;8.30;;;17.50;99.90;;;;;;5064594;28;20095;-76
2022/09/10 10:59:10;;;;;;;12.55;9.52;;;17.70;99.90;;;;;;5065381;28;20048;-76
2022/09/10 11:01:44;;;;;;;16.08;9.95;;;17.50;99.90;;;;;;5064227;28;20044;-76
2022/09/10 11:04:34;;;;;;;15.65;10.52;;;17.70;99.90;;;;;;5065059;28;20051;-77
2022/09/10 11:07:20;;;;;;;17.95;10.27;;;17.60;99.90;;;;;;5064958;28;20143;-77
2022/09/10 11:09:59;;;;;;;16.92;9.63;;;17.60;99.90;;;;;;5061706;28;21060;-77
2022/09/10 11:12:30;;;;;;;16.85;10.35;;;17.50;99.90;;;;;;5064315;28;20487;-75
2022/09/10 11:15:36;;;;;;;15.60;10.25;;;17.20;99.90;;;;;;5065426;28;20049;-78
2022/09/10 11:18:26;;;;;;;16.58;9.70;;;17.70;99.90;;;;;;5063321;28;20056;-78
2022/09/10 11:21:18;;;;;;;13.23;9.07;;;17.70;99.90;;;;;;5063722;28;20500;-77
2022/09/10 11:24:08;;;;;;;10.90;8.05;;;17.50;99.90;;;;;;5065086;28;20055;-76
2022/09/10 11:26:40;;;;;;;10.13;7.88;;;17.80;99.90;;;;;;5064928;28;20081;-78
2022/09/10 11:29:18;;;;;;;11.63;8.18;;;17.60;99.90;;;;;;5066513;28;20067;-76
2022/09/10 11:31:59;;;;;;;13.30;8.45;;;17.80;99.90;;;;;;5064006;28;20044;-78
2022/09/10 11:34:48;;;;;;;11.00;8.32;;;17.60;99.90;;;;;;5063500;28;20131;-77
2022/09/10 11:37:45;;;;;;;12.85;8.35;;;18.00;99.90;;;;;;5066738;28;20135;-77
2022/09/10 11:40:27;;;;;;;13.35;8.80;;;17.80;99.90;;;;;;5064418;28;20132;-79
2022/09/10 11:42:59;;;;;;;10.45;7.20;;;18.00;99.90;;;;;;5065912;28;20053;-75
2022/09/10 11:45:48;;;;;;;11.73;8.25;;;17.80;99.90;;;;;;5063301;28;20492;-76
2022/09/10 11:48:33;;;;;;;11.73;8.32;;;17.80;99.90;;;;;;5064204;28;20399;-78
2022/09/10 11:51:05;;;;;;;15.57;8.65;;;18.10;99.90;;;;;;5064082;28;20119;-77
2022/09/10 11:53:30;;;;;;;11.32;7.78;;;17.80;99.90;;;;;;5063744;28;20044;-78
2022/09/10 11:56:21;;;;;;;12.00;8.07;;;18.00;99.90;;;;;;5063805;28;20050;-79
2022/09/10 11:58:53;;;;;;;14.38;8.43;;;18.00;99.90;;;;;;5063750;28;20096;-78
2022/09/10 12:01:31;;;;;;;12.02;8.52;;;18.10;99.90;;;;;;5069238;28;20097;-77
2022/09/10 12:04:03;;;;;;;12.38;7.90;;;18.10;99.90;;;;;;5069841;28;20406;-80
2022/09/10 12:07:09;;;;;;;13.15;8.80;;;18.00;99.90;;;;;;5069361;28;20088;-80
2022/09/10 12:09:55;;;;;;;12.25;8.60;;;18.40;99.90;;;;;;5051369;28;20056;-78
2022/09/10 12:12:43;;;;;;;14.13;8.13;;;18.10;99.90;;;;;;5066874;28;20048;-82
2022/09/10 12:15:26;;;;;;;15.25;8.68;;;18.40;99.90;;;;;;5083694;28;20044;-82
2022/09/10 12:18:03;;;;;;;10.00;7.75;;;18.40;99.90;;;;;;5070137;28;20435;-78
2022/09/10 12:20:34;;;;;;;10.55;8.02;;;18.30;99.90;;;;;;5070077;28;20044;-77
2022/09/10 12:23:00;;;;;;;13.27;9.02;;;18.40;99.90;;;;;;5070650;28;20044;-77
2022/09/10 12:25:29;;;;;;;11.65;8.63;;;18.80;99.90;;;;;;5070260;28;20048;-77
2022/09/10 12:27:56;;;;;;;14.80;7.82;;;18.50;99.90;;;;;;5070475;28;20052;-77
2022/09/10 12:30:32;;;;;;;9.80;7.30;;;18.40;99.90;;;;;;5070755;28;20095;-79
2022/09/10 12:33:28;;;;;;;10.82;7.78;;;18.60;99.90;;;;;;5071569;28;20040;-78
2022/09/10 12:35:53;;;;;;;10.85;7.97;;;18.40;99.90;;;;;;5072233;28;20041;-77
2022/09/10 12:38:57;;;;;;;10.93;7.90;;;18.60;99.90;;;;;;5070289;28;20089;-78
2022/09/10 12:41:22;;;;;;;11.30;8.00;;;18.50;99.90;;;;;;5070341;28;20392;-76
2022/09/10 12:43:48;;;;;;;12.25;8.23;;;18.60;99.90;;;;;;5071192;28;20048;-76
2022/09/10 12:46:13;;;;;;;11.32;8.20;;;18.20;99.90;;;;;;5071633;28;20504;-81
2022/09/10 12:49:12;;;;;;;8.90;8.00;;;18.40;99.90;;;;;;5068042;28;20052;-81
2022/09/10 12:51:37;;;;;;;10.95;8.05;;;18.50;99.90;;;;;;5064234;28;20105;-78
2022/09/10 12:54:03;;;;;;;13.05;8.90;;;18.40;99.90;;;;;;5072096;28;20036;-76